Time;durP1;ratioP1;P1;durP2;ratioP2;P2;SDS_P1;SDS_P2;PMS_P1;PMS_P2;Temp;Humidity;BMP_temperature;BMP_pressure;BME280_temperature;BME280_humidity;BME280_pressure;Samples;Min_cycle;Max_cycle;Signal;HPM_P1;HPM_P2
2022/03/10 00:01:10;;;;;;;12.70;6.53;;;2.70;85.00;;;;;;5055103;28;20698;-61
2022/03/10 00:03:36;;;;;;;13.20;6.10;;;2.60;86.40;;;;;;5059016;28;20119;-59
2022/03/10 00:06:01;;;;;;;12.23;7.20;;;2.60;85.90;;;;;;5059575;28;20132;-61
2022/03/10 00:08:27;;;;;;;14.65;6.65;;;2.50;88.40;;;;;;5060120;28;20043;-59
2022/03/10 00:10:52;;;;;;;13.05;6.63;;;2.40;88.50;;;;;;5056125;28;20464;-62
2022/03/10 00:13:18;;;;;;;16.25;6.35;;;2.30;88.50;;;;;;5060044;28;20047;-61
2022/03/10 00:15:44;;;;;;;14.10;6.40;;;2.30;86.70;;;;;;5075590;28;20063;-61
2022/03/10 00:18:09;;;;;;;11.48;6.18;;;2.30;86.60;;;;;;5044016;28;20033;-60
2022/03/10 00:20:35;;;;;;;10.48;5.95;;;2.30;86.50;;;;;;5042581;28;20481;-61
2022/03/10 00:23:01;;;;;;;15.48;6.57;;;2.30;85.70;;;;;;5045722;28;20025;-61
2022/03/10 00:25:26;;;;;;;14.23;6.40;;;2.30;85.40;;;;;;5042807;28;20101;-62
2022/03/10 00:27:52;;;;;;;12.75;6.38;;;2.40;84.10;;;;;;5044343;28;20075;-59
2022/03/10 00:30:18;;;;;;;12.43;6.63;;;2.40;85.30;;;;;;5045573;28;20037;-61
2022/03/10 00:32:51;;;;;;;14.35;6.03;;;2.40;88.40;;;;;;5043178;28;20044;-61
2022/03/10 00:35:26;;;;;;;11.23;5.47;;;2.40;86.50;;;;;;5044293;28;20041;-61
2022/03/10 00:37:53;;;;;;;17.23;6.32;;;2.40;84.70;;;;;;5044700;28;20175;-62
2022/03/10 00:40:19;;;;;;;13.52;6.68;;;2.50;83.60;;;;;;5044253;28;20041;-61
2022/03/10 00:42:46;;;;;;;13.27;6.88;;;2.50;84.20;;;;;;5043520;28;20072;-61
2022/03/10 00:45:13;;;;;;;14.98;6.90;;;2.60;82.30;;;;;;5045143;28;20033;-61
2022/03/10 00:47:39;;;;;;;11.52;6.22;;;2.60;84.70;;;;;;5038652;28;20041;-61
2022/03/10 00:50:07;;;;;;;14.63;6.10;;;2.50;85.30;;;;;;5044364;28;20040;-61
2022/03/10 00:52:32;;;;;;;12.60;6.32;;;2.50;85.30;;;;;;5044358;28;20045;-61
2022/03/10 00:54:58;;;;;;;11.55;6.15;;;2.50;84.70;;;;;;5045703;28;20044;-62
2022/03/10 00:57:24;;;;;;;12.27;6.55;;;2.40;86.80;;;;;;5040661;28;20045;-62
2022/03/10 00:59:50;;;;;;;14.27;6.53;;;2.40;86.90;;;;;;5046530;28;20037;-62
2022/03/10 01:02:16;;;;;;;14.93;6.30;;;2.40;87.40;;;;;;5038712;28;20056;-61
2022/03/10 01:04:43;;;;;;;12.73;6.00;;;2.30;88.20;;;;;;5045254;28;20048;-62
2022/03/10 01:07:10;;;;;;;13.15;6.63;;;2.30;88.10;;;;;;5043573;28;20037;-61
2022/03/10 01:09:36;;;;;;;15.35;7.60;;;2.30;87.50;;;;;;5045422;28;20044;-61
2022/03/10 01:12:02;;;;;;;19.42;6.68;;;2.30;86.90;;;;;;5041181;28;20045;-61
2022/03/10 01:14:28;;;;;;;13.68;6.70;;;2.30;90.40;;;;;;5043360;28;20040;-61
2022/03/10 01:16:56;;;;;;;18.58;6.95;;;2.20;90.70;;;;;;5044505;28;20132;-61
2022/03/10 01:19:22;;;;;;;12.98;7.18;;;2.30;90.50;;;;;;5045782;28;21392;-62
2022/03/10 01:21:48;;;;;;;10.27;6.28;;;2.20;91.50;;;;;;5040427;28;20838;-61
2022/03/10 01:24:13;;;;;;;12.55;6.85;;;2.10;91.10;;;;;;5038861;28;20063;-62
2022/03/10 01:26:39;;;;;;;17.05;7.20;;;2.00;91.00;;;;;;5041346;28;20033;-62
2022/03/10 01:29:05;;;;;;;12.45;6.85;;;2.10;91.40;;;;;;5044223;28;20112;-61
2022/03/10 01:31:31;;;;;;;15.25;6.68;;;2.00;91.40;;;;;;5054550;28;20043;-62
2022/03/10 01:33:57;;;;;;;13.27;6.72;;;1.80;92.00;;;;;;5057311;28;20032;-62
2022/03/10 01:36:23;;;;;;;12.43;6.72;;;1.70;92.60;;;;;;5060553;28;20086;-62
2022/03/10 01:38:49;;;;;;;13.02;6.95;;;1.80;91.20;;;;;;5060374;28;20040;-63
2022/03/10 01:41:15;;;;;;;16.00;6.97;;;1.70;92.80;;;;;;5065134;28;20029;-61
2022/03/10 01:44:00;;;;;;;14.65;7.15;;;1.90;91.40;;;;;;5059984;28;20036;-61
2022/03/10 01:46:26;;;;;;;20.63;7.25;;;1.90;92.80;;;;;;5060375;28;20102;-60
2022/03/10 01:48:52;;;;;;;14.10;6.63;;;1.90;90.70;;;;;;5064317;28;20036;-62
2022/03/10 01:51:18;;;;;;;11.70;6.40;;;1.80;92.40;;;;;;5064310;28;20040;-62
2022/03/10 01:53:44;;;;;;;14.57;7.07;;;1.80;92.60;;;;;;5063041;28;20049;-62
2022/03/10 01:56:11;;;;;;;14.68;7.15;;;1.80;92.70;;;;;;5064635;28;20044;-62
2022/03/10 01:58:38;;;;;;;15.75;7.30;;;1.80;92.60;;;;;;5057471;28;20037;-62
2022/03/10 02:01:03;;;;;;;14.90;7.32;;;1.70;93.20;;;;;;5048973;28;20067;-61
2022/03/10 02:03:29;;;;;;;15.07;7.05;;;1.70;93.80;;;;;;5039512;28;20037;-62
2022/03/10 02:05:56;;;;;;;14.88;7.95;;;1.60;93.20;;;;;;5042471;28;20064;-62
2022/03/10 02:11:06;;;;;;;15.50;7.95;;;1.50;94.10;;;;;;5043907;28;20061;-61
2022/03/10 02:13:32;;;;;;;15.40;7.32;;;1.40;93.80;;;;;;5040850;28;20673;-62
2022/03/10 02:18:42;;;;;;;13.73;7.47;;;1.40;93.70;;;;;;5037469;28;20037;-61
2022/03/10 02:21:08;;;;;;;12.32;6.85;;;1.40;93.90;;;;;;5044448;28;20341;-60
2022/03/10 02:23:34;;;;;;;14.23;7.65;;;1.40;93.10;;;;;;5037660;28;20044;-59
2022/03/10 02:25:59;;;;;;;13.02;7.40;;;1.50;92.50;;;;;;5043690;28;20041;-61
2022/03/10 02:28:27;;;;;;;13.80;7.10;;;1.40;93.80;;;;;;5038974;28;20041;-60
2022/03/10 02:30:53;;;;;;;18.40;7.38;;;1.30;93.90;;;;;;5042612;28;20665;-61
2022/03/10 02:33:19;;;;;;;15.73;8.13;;;1.30;93.30;;;;;;5039854;28;20927;-61
2022/03/10 02:35:46;;;;;;;14.88;8.05;;;1.40;93.40;;;;;;5042164;28;20047;-62
2022/03/10 02:38:18;;;;;;;13.75;7.05;;;1.30;93.10;;;;;;5042672;28;20845;-61
2022/03/10 02:40:50;;;;;;;16.17;7.43;;;1.30;93.70;;;;;;5042173;28;20039;-61
2022/03/10 02:43:20;;;;;;;15.80;7.45;;;1.20;93.50;;;;;;5040616;28;20041;-62
2022/03/10 02:45:46;;;;;;;18.27;7.45;;;1.30;93.00;;;;;;5039960;28;20056;-60
2022/03/10 02:48:16;;;;;;;13.88;7.03;;;1.30;93.30;;;;;;5042600;28;20120;-60
2022/03/10 02:50:42;;;;;;;13.15;6.32;;;1.30;92.60;;;;;;5042900;28;20041;-62
2022/03/10 02:53:09;;;;;;;16.95;8.00;;;1.30;93.80;;;;;;5042028;28;20033;-60
2022/03/10 02:55:34;;;;;;;14.02;7.68;;;1.30;93.20;;;;;;5041617;28;20049;-62
2022/03/10 02:58:00;;;;;;;13.73;7.03;;;1.40;93.20;;;;;;5042830;28;20451;-62
2022/03/10 03:00:26;;;;;;;13.00;7.38;;;1.40;93.40;;;;;;5039193;28;20510;-62
2022/03/10 03:02:52;;;;;;;15.00;7.13;;;1.30;93.40;;;;;;5042515;28;20394;-60
2022/03/10 03:05:17;;;;;;;13.13;7.38;;;1.20;94.20;;;;;;5029823;28;20044;-61
2022/03/10 03:07:44;;;;;;;16.10;6.35;;;1.20;94.50;;;;;;5043097;28;20094;-61
2022/03/10 03:10:11;;;;;;;13.68;7.38;;;1.20;94.10;;;;;;5037454;28;20045;-60
2022/03/10 03:12:51;;;;;;;17.42;7.28;;;1.20;93.90;;;;;;5041495;28;20079;-61
2022/03/10 03:15:18;;;;;;;15.43;7.80;;;1.30;93.90;;;;;;5037956;28;20048;-61
2022/03/10 03:17:44;;;;;;;14.57;7.88;;;1.30;93.60;;;;;;5042409;28;20045;-62
2022/03/10 03:20:14;;;;;;;17.27;7.25;;;1.30;94.10;;;;;;5039234;28;20037;-62
2022/03/10 03:22:41;;;;;;;12.18;6.93;;;1.30;93.60;;;;;;5042319;28;20037;-62
2022/03/10 03:25:08;;;;;;;12.18;6.63;;;1.30;94.50;;;;;;5041026;28;20044;-61
2022/03/10 03:27:34;;;;;;;16.63;7.75;;;1.40;93.80;;;;;;5042373;28;20045;-61
2022/03/10 03:29:59;;;;;;;12.98;7.90;;;1.40;93.70;;;;;;5037111;28;20100;-61
2022/03/10 03:32:25;;;;;;;11.95;6.90;;;1.40;94.30;;;;;;5053314;28;20788;-58
2022/03/10 03:34:50;;;;;;;14.85;6.57;;;1.40;94.10;;;;;;5073392;28;20056;-61
2022/03/10 03:37:16;;;;;;;14.68;6.88;;;1.40;93.60;;;;;;5054124;28;20484;-60
2022/03/10 03:39:41;;;;;;;13.57;7.70;;;1.60;93.60;;;;;;5063862;28;20063;-61
2022/03/10 03:42:07;;;;;;;14.38;7.35;;;1.50;93.80;;;;;;5056822;28;20346;-60
2022/03/10 03:44:32;;;;;;;13.23;7.57;;;1.60;93.70;;;;;;5064304;28;20036;-61
2022/03/10 03:46:58;;;;;;;12.98;7.10;;;1.50;94.10;;;;;;5055626;28;20235;-60
2022/03/10 03:49:23;;;;;;;12.38;6.15;;;1.40;94.50;;;;;;5067997;28;20068;-61
2022/03/10 03:51:49;;;;;;;12.63;6.10;;;1.40;94.20;;;;;;5059178;28;20407;-62
2022/03/10 03:54:15;;;;;;;11.27;6.50;;;1.40;93.90;;;;;;5064237;28;20691;-61
2022/03/10 03:56:40;;;;;;;13.45;7.40;;;1.50;94.00;;;;;;5060439;28;20087;-60
2022/03/10 03:59:06;;;;;;;12.60;7.15;;;1.40;94.30;;;;;;5071124;28;20035;-61
2022/03/10 04:01:32;;;;;;;14.07;7.13;;;1.40;93.20;;;;;;5067565;28;20045;-61
2022/03/10 04:03:58;;;;;;;18.33;7.53;;;1.50;91.90;;;;;;5064589;28;20496;-61
2022/03/10 04:06:24;;;;;;;15.25;6.90;;;1.60;92.00;;;;;;5053345;28;20076;-61
2022/03/10 04:08:50;;;;;;;17.23;6.63;;;1.70;91.60;;;;;;5066027;28;20400;-62
2022/03/10 04:11:16;;;;;;;13.98;7.03;;;1.70;91.90;;;;;;5061802;28;20033;-60
2022/03/10 04:13:42;;;;;;;14.32;7.18;;;1.80;92.00;;;;;;5067307;28;20233;-60
2022/03/10 04:16:08;;;;;;;19.67;8.07;;;1.80;91.50;;;;;;5058604;28;20036;-59
2022/03/10 04:18:34;;;;;;;15.68;7.85;;;1.80;92.00;;;;;;5068593;28;20040;-61
2022/03/10 04:20:59;;;;;;;16.58;7.60;;;1.80;92.30;;;;;;5064240;28;20032;-62
2022/03/10 04:23:28;;;;;;;15.73;7.85;;;1.80;92.10;;;;;;5067442;28;20102;-61
2022/03/10 04:25:54;;;;;;;18.85;8.35;;;1.80;92.10;;;;;;5073983;28;20050;-59
2022/03/10 04:28:20;;;;;;;12.60;7.30;;;1.90;91.60;;;;;;5062662;28;20051;-61
2022/03/10 04:30:46;;;;;;;17.60;7.95;;;1.90;91.70;;;;;;5059198;28;20052;-63
2022/03/10 04:33:12;;;;;;;13.55;7.38;;;2.00;92.00;;;;;;5066319;28;20271;-61
2022/03/10 04:35:38;;;;;;;19.35;9.35;;;2.00;92.00;;;;;;5068803;28;20079;-61
2022/03/10 04:38:03;;;;;;;15.30;7.93;;;2.10;90.80;;;;;;5059200;28;20442;-61
2022/03/10 04:40:29;;;;;;;18.98;8.35;;;2.10;90.90;;;;;;5061737;28;20045;-62
2022/03/10 04:42:55;;;;;;;18.85;8.98;;;2.20;90.70;;;;;;5060572;28;20055;-61
2022/03/10 04:45:22;;;;;;;17.80;8.90;;;2.30;90.50;;;;;;5067993;28;20063;-62
2022/03/10 04:47:48;;;;;;;17.45;8.02;;;2.60;87.90;;;;;;5064599;28;20501;-62
2022/03/10 04:50:15;;;;;;;31.50;9.75;;;2.70;86.90;;;;;;5060365;28;20089;-62
2022/03/10 04:52:42;;;;;;;16.40;8.77;;;2.90;86.60;;;;;;5052475;28;20413;-62
2022/03/10 04:55:09;;;;;;;17.10;8.18;;;3.00;85.50;;;;;;5045125;28;20032;-60
2022/03/10 04:57:36;;;;;;;15.23;8.15;;;3.10;84.60;;;;;;5057956;28;20503;-60
2022/03/10 05:00:08;;;;;;;14.00;7.85;;;3.10;85.60;;;;;;5067880;28;20048;-61
2022/03/10 05:02:38;;;;;;;16.38;7.55;;;3.00;87.70;;;;;;5056264;28;20033;-61
2022/03/10 05:05:04;;;;;;;19.13;8.30;;;2.80;88.40;;;;;;5054246;28;20040;-62
2022/03/10 05:07:30;;;;;;;21.52;8.93;;;2.90;85.50;;;;;;5056273;28;20120;-63
2022/03/10 05:09:55;;;;;;;16.73;8.38;;;3.00;86.00;;;;;;5061135;28;20810;-62
2022/03/10 05:12:21;;;;;;;20.52;9.88;;;3.00;85.50;;;;;;5057488;28;20025;-61
2022/03/10 05:14:46;;;;;;;16.63;8.65;;;3.00;85.20;;;;;;5060551;28;20040;-63
2022/03/10 05:17:12;;;;;;;16.90;8.45;;;3.00;85.70;;;;;;5054099;28;20071;-62
2022/03/10 05:19:38;;;;;;;21.65;9.25;;;2.90;87.50;;;;;;5069106;28;20044;-62
2022/03/10 05:22:03;;;;;;;17.17;8.27;;;2.70;89.20;;;;;;5056404;28;20071;-61
2022/03/10 05:24:29;;;;;;;17.02;7.95;;;2.60;90.80;;;;;;5069279;28;20194;-61
2022/03/10 05:26:57;;;;;;;17.05;7.85;;;2.30;91.20;;;;;;5057559;28;20041;-61
2022/03/10 05:29:22;;;;;;;16.38;8.30;;;2.20;91.90;;;;;;5072552;28;20177;-63
2022/03/10 05:31:48;;;;;;;18.48;8.90;;;2.20;91.30;;;;;;5057740;28;20123;-61
2022/03/10 05:34:14;;;;;;;15.80;8.68;;;2.30;90.50;;;;;;5066541;28;20036;-61
2022/03/10 05:36:40;;;;;;;15.85;8.30;;;2.30;90.40;;;;;;5056494;28;20037;-62
2022/03/10 05:39:05;;;;;;;17.35;8.35;;;2.20;91.30;;;;;;5061022;28;20033;-58
2022/03/10 05:41:32;;;;;;;15.30;8.68;;;2.10;91.00;;;;;;5054354;28;20121;-60
2022/03/10 05:43:58;;;;;;;15.52;8.07;;;2.10;90.40;;;;;;5059858;28;20094;-61
2022/03/10 05:46:24;;;;;;;15.68;8.35;;;2.10;90.10;;;;;;5058597;28;20048;-61
2022/03/10 05:48:50;;;;;;;14.00;7.47;;;2.10;90.90;;;;;;5061843;28;20920;-62
2022/03/10 05:51:15;;;;;;;17.17;8.45;;;2.10;90.60;;;;;;5061203;28;20043;-62
2022/03/10 05:53:41;;;;;;;18.58;8.70;;;2.00;91.60;;;;;;5062244;28;20036;-62
2022/03/10 05:56:07;;;;;;;16.88;8.00;;;2.00;92.00;;;;;;5059415;28;20040;-61
2022/03/10 05:58:33;;;;;;;26.73;9.18;;;1.90;92.30;;;;;;5060966;28;20037;-62
2022/03/10 06:00:58;;;;;;;14.18;8.00;;;1.90;91.80;;;;;;5058929;28;20051;-63
2022/03/10 06:03:24;;;;;;;15.70;8.82;;;1.90;92.10;;;;;;5065290;28;20542;-63
2022/03/10 06:05:50;;;;;;;22.75;9.07;;;1.90;91.60;;;;;;5056892;28;20040;-62
2022/03/10 06:08:15;;;;;;;17.77;8.75;;;2.00;91.50;;;;;;5037094;23;20049;-62
2022/03/10 06:10:41;;;;;;;18.20;9.05;;;2.10;92.00;;;;;;5002395;28;20042;-62
2022/03/10 06:13:07;;;;;;;19.33;9.23;;;2.10;92.70;;;;;;5001479;28;20121;-61
2022/03/10 06:15:33;;;;;;;23.75;8.40;;;2.00;92.40;;;;;;5000615;28;20070;-62
2022/03/10 06:17:58;;;;;;;22.88;9.68;;;2.00;92.10;;;;;;5002792;28;20442;-63
2022/03/10 06:20:25;;;;;;;20.70;9.18;;;2.10;92.00;;;;;;5003054;28;20034;-62
2022/03/10 06:22:50;;;;;;;20.90;8.95;;;2.00;92.20;;;;;;5002490;28;20121;-62
2022/03/10 06:25:16;;;;;;;20.42;8.82;;;2.10;91.70;;;;;;5000852;28;20125;-62
2022/03/10 06:27:42;;;;;;;18.02;8.07;;;2.10;91.60;;;;;;5003071;28;20042;-63
2022/03/10 06:30:08;;;;;;;29.30;9.90;;;2.10;91.80;;;;;;5004311;28;20095;-62
2022/03/10 06:32:34;;;;;;;18.90;8.77;;;2.10;91.70;;;;;;5003311;28;20045;-62
2022/03/10 06:34:59;;;;;;;22.42;9.13;;;2.20;91.80;;;;;;5002946;28;20120;-63
2022/03/10 06:37:26;;;;;;;24.80;9.57;;;2.20;91.70;;;;;;4998678;28;20129;-62
2022/03/10 06:39:52;;;;;;;21.75;8.88;;;2.60;91.70;;;;;;5003197;28;20078;-62
2022/03/10 06:42:19;;;;;;;37.97;8.93;;;3.20;91.40;;;;;;5004507;28;20034;-63
2022/03/10 06:44:44;;;;;;;18.70;8.45;;;3.60;90.90;;;;;;5002608;28;20076;-61
2022/03/10 06:47:11;;;;;;;18.50;9.10;;;3.80;90.70;;;;;;5004358;28;20073;-63
2022/03/10 06:49:37;;;;;;;25.33;9.52;;;3.70;91.80;;;;;;5003657;28;20112;-64
2022/03/10 06:52:03;;;;;;;24.40;8.32;;;3.90;91.40;;;;;;5002634;28;20042;-64
2022/03/10 06:54:28;;;;;;;17.48;9.35;;;4.40;92.30;;;;;;5003341;28;20120;-63
2022/03/10 06:56:54;;;;;;;16.95;8.57;;;4.70;89.20;;;;;;5003756;28;20072;-66
2022/03/10 06:59:20;;;;;;;18.13;8.55;;;4.80;90.10;;;;;;5003926;28;20026;-64
2022/03/10 07:01:45;;;;;;;19.73;8.45;;;5.00;86.90;;;;;;5002941;28;20725;-63
2022/03/10 07:04:11;;;;;;;;;;;5.80;87.30;;;;;;5003739;28;20033;-64
2022/03/10 07:06:36;;;;;;;11.95;7.00;;;6.60;83.70;;;;;;5003287;28;19924;-66
2022/03/10 07:09:02;;;;;;;;;;;7.00;81.30;;;;;;4996796;28;20052;-65
2022/03/10 07:11:28;;;;;;;15.85;8.43;;;7.50;81.20;;;;;;5003575;28;19917;-62
2022/03/10 07:13:54;;;;;;;;;;;8.10;82.80;;;;;;5003164;28;20034;-62
2022/03/10 07:16:19;;;;;;;22.08;7.68;;;8.50;78.50;;;;;;5003820;28;19921;-63
2022/03/10 07:18:51;;;;;;;;;;;8.50;78.30;;;;;;5004145;28;20065;-64
2022/03/10 07:21:21;;;;;;;16.45;8.63;;;8.60;79.20;;;;;;5003414;28;20527;-63
2022/03/10 07:23:47;;;;;;;18.63;8.15;;;8.60;75.70;;;;;;4988703;28;20434;-63
2022/03/10 07:26:13;;;;;;;17.85;8.10;;;8.40;74.30;;;;;;5003560;28;20037;-63
2022/03/10 07:28:39;;;;;;;;;;;8.80;74.70;;;;;;5007332;28;20057;-63
2022/03/10 07:31:04;;;;;;;15.18;7.78;;;8.90;73.90;;;;;;5007264;28;19967;-64
2022/03/10 07:33:30;;;;;;;;;;;9.30;74.00;;;;;;5007747;28;20042;-63
2022/03/10 07:35:55;;;;;;;13.30;7.75;;;9.60;71.60;;;;;;5008304;28;19921;-63
2022/03/10 07:38:21;;;;;;;;;;;9.70;72.70;;;;;;5007470;28;20409;-65
2022/03/10 07:40:47;;;;;;;17.25;9.25;;;9.50;67.30;;;;;;5007502;28;20569;-62
2022/03/10 07:43:12;;;;;;;;;;;8.90;68.40;;;;;;4988419;28;20091;-63
2022/03/10 07:45:38;;;;;;;16.25;8.27;;;8.70;68.40;;;;;;5006141;28;19979;-63
2022/03/10 07:48:04;;;;;;;;;;;8.80;69.40;;;;;;5005655;28;20050;-60
2022/03/10 07:50:30;;;;;;;15.60;8.35;;;8.70;69.20;;;;;;4990002;28;19917;-63
2022/03/10 07:52:55;;;;;;;;;;;8.80;69.10;;;;;;5006476;28;20638;-63
2022/03/10 07:55:21;;;;;;;16.52;10.18;;;9.10;69.60;;;;;;5007943;28;19920;-64
2022/03/10 07:57:47;;;;;;;;;;;9.30;66.10;;;;;;5008958;28;20053;-60
2022/03/10 08:00:13;;;;;;;16.63;8.45;;;9.50;65.40;;;;;;5007041;28;19913;-61
2022/03/10 08:02:38;;;;;;;;;;;10.30;67.60;;;;;;5008122;28;20048;-62
2022/03/10 08:05:05;;;;;;;15.90;8.38;;;10.60;62.70;;;;;;5007048;28;19921;-62
2022/03/10 08:07:34;;;;;;;19.65;9.32;;;10.90;64.60;;;;;;5006858;28;20049;-63
2022/03/10 08:10:01;;;;;;;20.05;9.68;;;11.00;61.50;;;;;;5007077;28;20050;-62
2022/03/10 08:12:28;;;;;;;16.95;9.73;;;10.80;59.10;;;;;;5007673;28;20042;-63
2022/03/10 08:14:54;;;;;;;13.70;8.10;;;10.80;60.20;;;;;;5006503;28;20670;-63
2022/03/10 08:17:19;;;;;;;;;;;11.30;62.50;;;;;;4989226;28;20037;-62
2022/03/10 08:19:45;;;;;;;16.52;9.45;;;11.60;59.10;;;;;;5006783;28;20457;-62
2022/03/10 08:22:10;;;;;;;;;;;11.90;56.10;;;;;;4990193;28;20037;-62
2022/03/10 08:24:36;;;;;;;19.70;9.63;;;11.70;58.50;;;;;;5005695;28;20012;-62
2022/03/10 08:27:02;;;;;;;;;;;11.60;55.40;;;;;;5007586;28;20117;-62
2022/03/10 08:29:27;;;;;;;17.85;9.18;;;11.30;56.10;;;;;;5007030;28;20138;-62
2022/03/10 08:31:53;;;;;;;;;;;11.20;56.60;;;;;;5006689;28;20042;-62
2022/03/10 08:34:18;;;;;;;22.63;9.90;;;10.60;56.70;;;;;;5008063;28;19964;-61
2022/03/10 08:36:44;;;;;;;;;;;9.60;58.60;;;;;;5007575;28;20042;-62
2022/03/10 08:39:10;;;;;;;17.73;9.32;;;9.00;62.00;;;;;;5006164;28;19956;-63
2022/03/10 08:41:36;;;;;;;;;;;8.80;61.80;;;;;;5007697;28;20117;-62
2022/03/10 08:44:02;;;;;;;17.13;9.18;;;8.70;63.10;;;;;;5006073;28;19917;-61
2022/03/10 08:46:27;;;;;;;;;;;8.80;64.20;;;;;;5007383;28;20049;-63
2022/03/10 08:48:53;;;;;;;17.77;9.38;;;8.70;64.80;;;;;;5006122;28;20016;-63
2022/03/10 08:51:18;;;;;;;;;;;8.70;63.60;;;;;;5006977;28;20549;-63
2022/03/10 08:53:44;;;;;;;18.63;8.63;;;8.60;62.70;;;;;;5005723;28;19921;-61
2022/03/10 08:56:10;;;;;;;;;;;8.60;64.50;;;;;;5006433;28;20076;-62
2022/03/10 08:58:36;;;;;;;21.10;10.10;;;8.70;64.50;;;;;;5006114;28;19918;-63
2022/03/10 09:01:02;;;;;;;;;;;8.60;63.10;;;;;;5005080;28;20057;-62
2022/03/10 09:03:28;;;;;;;20.27;9.80;;;8.60;63.00;;;;;;5007264;28;19925;-61
2022/03/10 09:05:54;;;;;;;15.68;9.38;;;8.70;62.60;;;;;;4989579;28;20125;-63
2022/03/10 09:08:20;;;;;;;;;;;8.60;63.10;;;;;;5007040;28;20121;-61
2022/03/10 09:10:46;;;;;;;24.02;10.50;;;8.70;61.90;;;;;;5005387;28;19918;-62
2022/03/10 09:13:11;;;;;;;;;;;8.80;64.90;;;;;;5006191;28;20060;-62
2022/03/10 09:15:37;;;;;;;18.77;9.48;;;8.90;63.30;;;;;;5005153;28;20378;-60
2022/03/10 09:18:03;;;;;;;17.35;9.15;;;8.90;61.70;;;;;;5005657;28;20034;-62
2022/03/10 09:20:29;;;;;;;;;;;8.90;61.80;;;;;;5006228;28;20045;-60
2022/03/10 09:22:55;;;;;;;16.48;9.63;;;9.00;62.00;;;;;;4990400;28;20351;-62
2022/03/10 09:25:20;;;;;;;;;;;9.00;61.80;;;;;;5005382;28;20050;-62
2022/03/10 09:27:48;;;;;;;18.77;9.70;;;8.90;60.60;;;;;;5005772;28;19917;-61
2022/03/10 09:30:14;;;;;;;18.02;9.20;;;9.00;61.50;;;;;;5004194;28;20054;-62
2022/03/10 09:32:41;;;;;;;;;;;9.10;62.80;;;;;;5006693;28;20046;-62
2022/03/10 09:35:09;;;;;;;18.23;9.57;;;9.20;63.80;;;;;;5004835;28;19944;-62
2022/03/10 09:37:35;;;;;;;15.32;8.85;;;9.30;61.80;;;;;;5005478;28;20054;-62
2022/03/10 09:40:02;;;;;;;20.63;8.85;;;9.40;61.00;;;;;;5005197;28;20164;-63
2022/03/10 09:42:30;;;;;;;14.57;8.35;;;9.50;61.10;;;;;;5004948;28;20034;-63
2022/03/10 09:45:09;;;;;;;17.38;9.13;;;9.60;61.40;;;;;;5004545;28;20068;-62
2022/03/10 09:47:36;;;;;;;18.23;10.00;;;9.70;61.00;;;;;;5004126;28;20034;-63
2022/03/10 09:50:05;;;;;;;15.40;9.18;;;9.80;59.90;;;;;;5004612;28;20108;-62
2022/03/10 09:52:31;;;;;;;20.02;9.05;;;9.80;59.30;;;;;;5005624;28;20502;-62
2022/03/10 09:54:58;;;;;;;;;;;9.80;58.30;;;;;;4987775;28;20045;-63
2022/03/10 09:57:25;;;;;;;16.35;8.88;;;9.80;58.80;;;;;;5003237;28;19925;-62
2022/03/10 09:59:53;;;;;;;17.67;9.70;;;9.90;60.60;;;;;;5005106;28;20069;-63
2022/03/10 10:02:19;;;;;;;18.00;8.98;;;10.00;62.20;;;;;;5004107;28;20042;-62
2022/03/10 10:04:46;;;;;;;16.33;9.52;;;9.90;59.20;;;;;;5006277;28;20053;-62
2022/03/10 10:07:12;;;;;;;18.77;9.63;;;10.00;59.90;;;;;;5004973;28;20042;-61
2022/03/10 10:09:42;;;;;;;;;;;10.00;59.10;;;;;;5006143;28;20100;-63
2022/03/10 10:12:09;;;;;;;24.38;10.52;;;10.10;61.80;;;;;;5003763;28;19932;-61
2022/03/10 10:14:40;;;;;;;21.10;9.27;;;10.00;60.10;;;;;;5004929;28;20124;-62
2022/03/10 10:17:06;;;;;;;18.55;10.00;;;10.10;59.30;;;;;;5004802;28;20045;-62
2022/03/10 10:19:33;;;;;;;;;;;10.20;57.90;;;;;;5005894;28;20038;-63
2022/03/10 10:22:12;;;;;;;22.05;9.23;;;10.30;59.00;;;;;;4992484;28;20048;-63
2022/03/10 10:24:38;;;;;;;17.17;9.65;;;10.30;58.70;;;;;;5004003;28;20045;-62
2022/03/10 10:27:13;;;;;;;;;;;10.50;59.30;;;;;;5005060;28;20401;-63
2022/03/10 10:29:52;;;;;;;18.05;8.55;;;10.60;59.90;;;;;;5005384;28;19979;-62
2022/03/10 10:32:46;;;;;;;16.55;9.65;;;10.70;58.50;;;;;;5002771;28;20104;-62
2022/03/10 10:35:13;;;;;;;16.08;9.38;;;10.70;57.10;;;;;;4986591;28;21368;-62
2022/03/10 10:37:48;;;;;;;22.00;9.15;;;10.70;58.70;;;;;;5005043;28;20782;-62
2022/03/10 10:40:20;;;;;;;17.08;10.35;;;10.80;58.40;;;;;;4997342;28;20070;-62
2022/03/10 10:42:45;;;;;;;15.07;8.88;;;10.80;56.20;;;;;;5004453;28;20057;-62
2022/03/10 10:45:26;;;;;;;;;;;10.80;58.90;;;;;;5003863;28;20034;-63
2022/03/10 10:48:12;;;;;;;24.25;9.23;;;10.80;57.60;;;;;;4995348;28;20062;-63
2022/03/10 10:50:46;;;;;;;16.25;9.13;;;10.80;58.60;;;;;;5004472;28;20041;-62
2022/03/10 10:53:32;;;;;;;17.75;9.48;;;10.90;57.10;;;;;;5003913;28;20502;-62
2022/03/10 10:55:58;;;;;;;23.25;9.13;;;10.90;56.70;;;;;;5002989;28;20052;-63
2022/03/10 10:58:24;;;;;;;;;;;10.80;57.90;;;;;;5004347;28;20049;-66
2022/03/10 11:00:50;;;;;;;21.10;8.87;;;10.80;56.30;;;;;;5001432;28;19917;-62
2022/03/10 11:03:22;;;;;;;;;;;10.90;57.10;;;;;;5004418;28;20041;-64
2022/03/10 11:05:48;;;;;;;18.73;9.23;;;10.90;55.90;;;;;;5002598;28;19928;-64
2022/03/10 11:08:19;;;;;;;15.88;8.80;;;11.00;56.20;;;;;;5003993;28;20561;-62
2022/03/10 11:10:45;;;;;;;20.60;8.35;;;11.00;59.30;;;;;;5003463;28;20038;-62
2022/03/10 11:13:10;;;;;;;;;;;11.10;56.60;;;;;;5005349;28;20044;-62
2022/03/10 11:15:37;;;;;;;18.73;8.80;;;11.00;56.00;;;;;;5002859;28;19975;-61
2022/03/10 11:18:04;;;;;;;15.85;8.45;;;11.00;57.10;;;;;;5004030;28;20041;-62
2022/03/10 11:20:32;;;;;;;13.30;8.27;;;11.10;56.90;;;;;;5003852;28;20815;-63
2022/03/10 11:22:58;;;;;;;15.48;8.60;;;11.10;56.20;;;;;;5003884;28;20124;-62
2022/03/10 11:25:33;;;;;;;;;;;11.20;59.40;;;;;;5003158;28;20121;-62
2022/03/10 11:28:03;;;;;;;14.82;8.13;;;11.30;57.60;;;;;;5004905;28;19917;-63
2022/03/10 11:30:31;;;;;;;12.20;7.68;;;11.20;55.10;;;;;;4997522;28;20037;-61
2022/03/10 11:33:12;;;;;;;14.50;7.13;;;11.20;56.40;;;;;;5004332;28;20371;-61
2022/03/10 11:35:42;;;;;;;14.65;7.85;;;11.20;56.80;;;;;;4998319;28;20050;-63
2022/03/10 11:38:10;;;;;;;15.45;7.85;;;11.30;57.50;;;;;;4996325;28;20042;-61
2022/03/10 11:40:47;;;;;;;14.98;7.82;;;11.40;57.00;;;;;;5003361;28;20524;-62
2022/03/10 11:43:20;;;;;;;15.00;7.68;;;11.40;57.50;;;;;;5003589;28;20034;-62
2022/03/10 11:45:46;;;;;;;15.40;8.50;;;11.50;56.80;;;;;;4998812;28;20180;-59
2022/03/10 11:48:24;;;;;;;15.63;7.88;;;11.50;56.70;;;;;;5003549;28;20054;-63
2022/03/10 11:50:50;;;;;;;12.63;7.57;;;11.60;56.00;;;;;;4991645;28;20038;-63
2022/03/10 11:53:16;;;;;;;14.18;8.23;;;11.50;56.80;;;;;;5004180;28;20042;-62
2022/03/10 11:55:43;;;;;;;;;;;11.60;56.30;;;;;;4998900;28;20056;-63
2022/03/10 11:58:11;;;;;;;13.47;7.73;;;11.60;56.50;;;;;;5002961;28;19917;-63
2022/03/10 12:00:43;;;;;;;10.00;6.88;;;11.60;56.30;;;;;;5002296;28;20034;-63
2022/03/10 12:03:10;;;;;;;11.60;7.07;;;11.60;56.40;;;;;;5003192;28;20104;-63
2022/03/10 12:05:58;;;;;;;11.95;6.70;;;11.70;56.90;;;;;;5001366;28;20038;-63
2022/03/10 12:08:27;;;;;;;13.23;7.40;;;11.70;55.70;;;;;;4999000;28;20115;-64
2022/03/10 12:10:53;;;;;;;13.20;6.97;;;11.70;55.80;;;;;;5001178;28;20052;-63
2022/03/10 12:13:28;;;;;;;;;;;11.70;56.60;;;;;;5004080;28;20050;-63
2022/03/10 12:15:55;;;;;;;13.70;7.00;;;11.70;56.10;;;;;;5006215;28;19922;-63
2022/03/10 12:18:25;;;;;;;13.73;6.65;;;11.70;58.00;;;;;;5000622;28;20104;-63
2022/03/10 12:20:53;;;;;;;11.40;6.25;;;11.70;55.70;;;;;;5005839;28;20041;-63
2022/03/10 12:23:23;;;;;;;10.68;6.07;;;11.60;54.60;;;;;;5000177;28;20057;-64
2022/03/10 12:25:55;;;;;;;11.68;6.63;;;11.50;55.60;;;;;;5004543;28;20036;-63
2022/03/10 12:28:31;;;;;;;10.85;6.57;;;11.50;56.80;;;;;;5001484;28;20487;-63
2022/03/10 12:31:11;;;;;;;11.93;6.68;;;11.60;56.30;;;;;;5006049;28;20037;-64
2022/03/10 12:33:45;;;;;;;12.20;6.25;;;11.60;54.80;;;;;;5007164;28;20038;-63
2022/03/10 12:36:11;;;;;;;13.07;6.40;;;11.70;56.50;;;;;;5003945;28;20041;-63
2022/03/10 12:38:41;;;;;;;;;;;11.70;56.30;;;;;;5008935;28;20045;-63
2022/03/10 12:41:07;;;;;;;12.75;6.68;;;11.80;55.90;;;;;;5005620;28;19982;-63
2022/03/10 12:43:34;;;;;;;13.82;6.65;;;11.80;55.90;;;;;;4992176;28;20033;-62
2022/03/10 12:46:01;;;;;;;12.98;6.88;;;11.90;56.40;;;;;;5006028;28;20129;-63
2022/03/10 12:48:43;;;;;;;10.95;5.75;;;11.90;55.40;;;;;;5006962;28;20045;-63
2022/03/10 12:51:23;;;;;;;12.18;7.15;;;11.90;54.80;;;;;;5006674;28;20049;-63
2022/03/10 12:53:49;;;;;;;12.23;6.75;;;11.90;55.20;;;;;;5005107;28;20077;-64
2022/03/10 12:56:15;;;;;;;14.70;6.93;;;11.90;55.60;;;;;;5004667;28;20045;-63
2022/03/10 12:58:40;;;;;;;;;;;11.90;54.70;;;;;;5006797;28;20564;-63
2022/03/10 13:01:09;;;;;;;16.13;6.95;;;11.90;54.30;;;;;;5004784;28;19917;-63